createdAt,value
2023-04-28T00:01:35.083Z,98772.42
2023-04-28T00:04:08.435Z,98771.98
2023-04-28T00:14:04.194Z,98763.91
2023-04-28T00:16:37.612Z,98759.79
2023-04-28T00:19:10.797Z,98767.11
2023-04-28T00:21:45.799Z,98766.92
2023-04-28T00:24:18.594Z,98760.50
2023-04-28T00:26:51.497Z,98763.34
2023-04-28T00:29:24.281Z,98761.33
2023-04-28T00:31:57.647Z,98763.48
2023-04-28T00:56:47.170Z,98768.17
2023-04-28T00:59:16.060Z,98770.52
2023-04-28T01:01:46.328Z,98776.81
2023-04-28T01:04:17.081Z,98779.07
2023-04-28T01:06:47.381Z,98779.68
2023-04-28T01:09:16.744Z,98781.95
2023-04-28T01:11:46.443Z,98778.48
2023-04-28T01:14:22.819Z,98776.89
2023-04-28T01:16:53.374Z,98774.30
2023-04-28T01:19:23.790Z,98775.56
2023-04-28T01:21:53.875Z,98774.34
2023-04-28T01:24:24.545Z,98767.11
2023-04-28T01:26:54.043Z,98765.75
2023-04-28T01:29:25.253Z,98766.30
2023-04-28T01:31:55.378Z,98769.13
2023-04-28T01:34:25.014Z,98769.69
2023-04-28T01:36:54.285Z,98770.73
2023-04-28T01:39:23.710Z,98771.60
2023-04-28T01:41:53.235Z,98769.16
2023-04-28T01:44:25.065Z,98772.91
2023-04-28T01:46:54.272Z,98778.77
2023-04-28T01:49:24.178Z,98773.85
2023-04-28T01:51:53.521Z,98771.65
2023-04-28T01:54:23.034Z,98771.52
2023-04-28T01:56:52.550Z,98770.80
2023-04-28T01:59:22.354Z,98768.27
2023-04-28T02:01:52.059Z,98770.34
2023-04-28T02:04:21.995Z,98769.49
2023-04-28T02:06:51.756Z,98769.25
2023-04-28T02:09:21.500Z,98767.94
2023-04-28T02:11:51.242Z,98771.59
2023-04-28T02:29:57.402Z,98746.92
2023-04-28T02:35:33.411Z,98747.42
2023-04-28T02:38:07.030Z,98751.79
2023-04-28T02:40:39.634Z,98751.75
2023-04-28T02:43:13.903Z,98751.92
2023-04-28T02:56:41.061Z,98739.75
2023-04-28T02:59:13.621Z,98741.98
2023-04-28T03:01:46.693Z,98744.77
2023-04-28T03:04:20.088Z,98751.41
2023-04-28T03:06:53.254Z,98756.69
2023-04-28T03:09:25.740Z,98758.94
2023-04-28T03:11:58.155Z,98763.02
2023-04-28T03:14:30.897Z,98765.46
2023-04-28T03:17:03.623Z,98764.41
2023-04-28T03:19:37.024Z,98766.47
2023-04-28T03:22:09.830Z,98766.54
2023-04-28T03:24:45.199Z,98770.92
2023-04-28T03:27:19.991Z,98773.23
2023-04-28T03:29:53.189Z,98771.52
2023-04-28T03:32:29.046Z,98772.17
2023-04-28T03:35:01.853Z,98773.41
2023-04-28T03:37:34.414Z,98772.48
2023-04-28T03:40:08.312Z,98771.05
2023-04-28T03:43:09.800Z,98771.40
2023-04-28T03:45:49.807Z,98772.59
2023-04-28T03:48:22.339Z,98775.11
2023-04-28T03:50:54.964Z,98776.79
2023-04-28T03:53:28.054Z,98781.52
2023-04-28T03:56:00.630Z,98775.61
2023-04-28T03:58:33.104Z,98778.05
2023-04-28T04:01:06.625Z,98778.15
2023-04-28T04:03:39.218Z,98780.35
2023-04-28T04:06:14.733Z,98777.11
2023-04-28T04:08:47.217Z,98779.55
2023-04-28T04:11:22.005Z,98781.07
2023-04-28T04:13:57.431Z,98778.48
2023-04-28T04:16:31.462Z,98784.38
2023-04-28T04:19:04.587Z,98782.98
2023-04-28T04:21:47.002Z,98786.63
2023-04-28T04:27:32.561Z,98784.00
2023-04-28T04:30:05.813Z,98785.80
2023-04-28T04:32:38.394Z,98783.14
2023-04-28T04:35:13.632Z,98785.55
2023-04-28T04:37:46.044Z,98782.20
2023-04-28T04:40:18.358Z,98779.35
2023-04-28T04:42:54.113Z,98778.84
2023-04-28T04:45:26.832Z,98774.71
2023-04-28T04:47:59.210Z,98778.10
2023-04-28T04:50:31.815Z,98782.98
2023-04-28T04:53:05.105Z,98778.02
2023-04-28T04:55:38.618Z,98775.77
2023-04-28T04:58:11.012Z,98773.65
2023-04-28T05:01:01.646Z,98772.75
2023-04-28T05:03:34.233Z,98770.24
2023-04-28T05:06:07.047Z,98766.27
2023-04-28T05:08:49.851Z,98768.25
2023-04-28T05:11:24.095Z,98765.16
2023-04-28T05:13:56.439Z,98768.97
2023-04-28T05:16:29.421Z,98763.04
2023-04-28T05:19:21.957Z,98755.36
2023-04-28T05:21:55.168Z,98749.98
2023-04-28T05:24:27.940Z,98743.57
2023-04-28T05:27:02.938Z,98743.33
2023-04-28T05:29:35.232Z,98744.70
2023-04-28T05:32:08.000Z,98741.16
2023-04-28T05:34:50.103Z,98736.11
2023-04-28T05:37:22.822Z,98732.98
2023-04-28T05:39:56.585Z,98727.98
2023-04-28T05:42:28.873Z,98725.50
2023-04-28T05:45:01.130Z,98726.73
2023-04-28T05:47:33.561Z,98724.23
2023-04-28T05:50:06.669Z,98719.27
2023-04-28T05:52:38.723Z,98719.42
2023-04-28T05:55:11.880Z,98713.45
2023-04-28T05:57:52.244Z,98695.96
2023-04-28T06:00:26.589Z,98690.04
2023-04-28T06:02:58.954Z,98692.46
2023-04-28T06:05:31.496Z,98695.12
2023-04-28T06:08:04.676Z,98674.70
2023-04-28T06:10:37.087Z,98671.31
2023-04-28T06:13:09.545Z,98678.31
2023-04-28T06:15:41.898Z,98674.27
2023-04-28T06:18:16.224Z,98673.61
2023-04-28T06:20:48.525Z,98682.53
2023-04-28T06:23:20.705Z,98677.79
2023-04-28T06:25:54.389Z,98674.02
2023-04-28T06:28:27.032Z,98667.62
2023-04-28T06:31:01.852Z,98659.76
2023-04-28T06:33:33.894Z,98663.84
2023-04-28T06:36:06.814Z,98661.91
2023-04-28T06:38:38.905Z,98657.55
2023-04-28T06:41:11.313Z,98643.53
2023-04-28T06:43:43.887Z,98625.80
2023-04-28T06:46:37.775Z,98614.19
2023-04-28T06:49:10.203Z,98620.13
2023-04-28T06:51:42.264Z,98600.39
2023-04-28T06:54:14.502Z,98590.26
2023-04-28T06:56:48.993Z,98586.40
2023-04-28T06:59:21.424Z,98568.75
2023-04-28T07:01:53.584Z,98570.77
2023-04-28T07:04:25.765Z,98566.57
2023-04-28T07:06:58.189Z,98559.20
2023-04-28T07:09:31.572Z,98553.96
2023-04-28T07:12:04.372Z,98522.74
2023-04-28T07:14:36.493Z,98531.92
2023-04-28T07:17:08.579Z,98527.70
2023-04-28T07:19:40.891Z,98506.66
2023-04-28T07:22:13.342Z,98507.98
2023-04-28T07:24:45.767Z,98518.66
2023-04-28T07:27:17.852Z,98482.13
2023-04-28T07:29:50.278Z,98476.11
2023-04-28T07:35:33.805Z,98475.03
2023-04-28T07:38:06.556Z,98483.70
2023-04-28T07:40:39.218Z,98457.20
2023-04-28T07:43:11.456Z,98443.53
2023-04-28T07:45:45.886Z,98416.27
2023-04-28T07:48:18.450Z,98404.05
2023-04-28T07:50:50.894Z,98399.66
2023-04-28T07:53:23.095Z,98391.97
2023-04-28T07:55:55.818Z,98384.38
2023-04-28T07:58:28.743Z,98395.79
2023-04-28T08:01:00.856Z,98376.58
2023-04-28T08:03:33.175Z,98382.77
2023-04-28T08:06:05.972Z,98353.20
2023-04-28T08:08:38.595Z,98361.08
2023-04-28T08:11:10.660Z,98351.16
2023-04-28T08:13:43.657Z,98336.73
2023-04-28T08:16:16.357Z,98343.35
2023-04-28T08:18:48.697Z,98338.20
2023-04-28T08:21:21.443Z,98341.35
2023-04-28T08:23:53.586Z,98302.71
2023-04-28T08:26:26.188Z,98280.55
2023-04-28T08:28:58.346Z,98300.57
2023-04-28T08:31:30.571Z,98302.27
2023-04-28T08:34:02.700Z,98291.55
2023-04-28T08:36:35.405Z,98275.23
2023-04-28T08:39:08.785Z,98268.69
2023-04-28T08:41:42.208Z,98282.76
2023-04-28T08:44:14.605Z,98278.76
2023-04-28T08:46:48.007Z,98284.13
2023-04-28T08:49:24.728Z,98295.73
2023-04-28T08:52:01.911Z,98300.17
2023-04-28T08:54:37.117Z,98317.30
2023-04-28T08:57:11.840Z,98316.46
2023-04-28T08:59:44.257Z,98319.31
2023-04-28T09:02:16.676Z,98315.31
2023-04-28T09:04:49.782Z,98313.73
2023-04-28T09:07:22.478Z,98310.92
2023-04-28T09:10:22.255Z,98315.92
2023-04-28T09:12:57.550Z,98300.13
2023-04-28T09:15:33.924Z,98307.77
2023-04-28T09:18:08.307Z,98316.32
2023-04-28T09:20:40.448Z,98317.11
2023-04-28T09:23:21.193Z,98303.23
2023-04-28T09:26:07.718Z,98299.80
2023-04-28T09:28:39.898Z,98291.41
2023-04-28T09:31:26.121Z,98298.37
2023-04-28T09:34:01.716Z,98283.10
2023-04-28T09:36:33.964Z,98269.02
2023-04-28T09:39:06.133Z,98277.30
2023-04-28T09:41:42.042Z,98286.58
2023-04-28T09:44:19.226Z,98283.67
2023-04-28T09:46:51.925Z,98289.39
2023-04-28T09:49:24.032Z,98285.48
2023-04-28T09:51:56.148Z,98290.43
2023-04-28T09:57:35.755Z,98278.41
2023-04-28T10:00:10.348Z,98279.67
2023-04-28T10:02:44.232Z,98275.88
2023-04-28T10:05:19.809Z,98269.40
2023-04-28T10:07:54.258Z,98241.96
2023-04-28T10:10:27.530Z,98254.77
2023-04-28T10:13:03.104Z,98252.34
2023-04-28T10:15:36.885Z,98265.94
2023-04-28T10:18:10.489Z,98246.23
2023-04-28T10:20:48.063Z,98245.30
2023-04-28T10:23:54.291Z,98242.45
2023-04-28T10:26:37.760Z,98232.55
2023-04-28T10:29:10.353Z,98226.95
2023-04-28T10:32:18.384Z,98229.96
2023-04-28T10:34:51.334Z,98246.73
2023-04-28T10:37:43.513Z,98229.03
2023-04-28T10:40:35.822Z,98224.41
2023-04-28T10:43:09.977Z,98221.52
2023-04-28T10:46:08.531Z,98210.28
2023-04-28T10:49:00.622Z,98201.69
2023-04-28T10:51:34.418Z,98197.49
2023-04-28T10:54:30.271Z,98191.27
2023-04-28T10:57:24.556Z,98190.95
2023-04-28T11:00:30.874Z,98188.86
2023-04-28T11:03:03.536Z,98173.38
2023-04-28T11:05:36.702Z,98183.02
2023-04-28T11:08:34.444Z,98193.96
2023-04-28T11:11:16.363Z,98204.55
2023-04-28T11:13:50.306Z,98209.10
2023-04-28T11:16:27.109Z,98190.12
2023-04-28T11:19:07.291Z,98202.61
2023-04-28T11:21:40.945Z,98205.55
2023-04-28T11:24:15.171Z,98207.49
2023-04-28T11:26:47.584Z,98201.09
2023-04-28T11:29:19.707Z,98209.92
2023-04-28T11:31:55.110Z,98204.14
2023-04-28T11:34:27.745Z,98205.00
2023-04-28T11:36:59.845Z,98199.02
2023-04-28T11:39:33.543Z,98213.91
2023-04-28T11:42:12.585Z,98216.96
2023-04-28T11:44:50.428Z,98208.67
2023-04-28T11:47:33.852Z,98209.02
2023-04-28T11:50:08.393Z,98213.66
2023-04-28T11:52:53.844Z,98211.13
2023-04-28T11:55:28.678Z,98215.52
2023-04-28T11:58:22.485Z,98209.23
2023-04-28T12:01:11.311Z,98216.51
2023-04-28T12:03:47.596Z,98200.57
2023-04-28T12:06:21.221Z,98197.11
2023-04-28T12:08:53.729Z,98191.31
2023-04-28T12:11:26.006Z,98191.27
2023-04-28T12:14:09.112Z,98193.77
2023-04-28T12:16:47.480Z,98195.75
2023-04-28T12:19:20.300Z,98189.77
2023-04-28T12:22:06.005Z,98191.30
2023-04-28T12:24:39.193Z,98180.70
2023-04-28T12:27:25.241Z,98178.56
2023-04-28T12:29:58.471Z,98172.23
2023-04-28T12:32:43.594Z,98172.80
2023-04-28T12:35:16.166Z,98169.45
2023-04-28T12:37:48.243Z,98169.91
2023-04-28T12:40:20.791Z,98165.55
2023-04-28T12:42:53.260Z,98165.67
2023-04-28T12:45:25.946Z,98163.77
2023-04-28T12:47:58.622Z,98157.65
2023-04-28T12:50:33.224Z,98157.32
2023-04-28T12:53:05.517Z,98156.52
2023-04-28T12:55:39.413Z,98153.98
2023-04-28T12:58:12.008Z,98141.13
2023-04-28T13:00:44.455Z,98140.41
2023-04-28T13:03:17.799Z,98131.16
2023-04-28T13:05:50.003Z,98132.68
2023-04-28T13:08:22.136Z,98139.20
2023-04-28T13:10:54.329Z,98134.59
2023-04-28T13:13:26.811Z,98130.98
2023-04-28T13:15:58.974Z,98132.39
2023-04-28T13:18:31.551Z,98122.08
2023-04-28T13:21:07.106Z,98114.82
2023-04-28T13:23:39.324Z,98121.98
2023-04-28T13:26:11.945Z,98118.35
2023-04-28T13:28:44.024Z,98113.89
2023-04-28T13:31:16.651Z,98111.88
2023-04-28T13:33:48.795Z,98116.88
2023-04-28T13:36:21.300Z,98110.65
2023-04-28T13:38:53.702Z,98109.73
2023-04-28T13:41:26.111Z,98110.25
2023-04-28T13:43:58.153Z,98102.50
2023-04-28T13:46:30.581Z,98098.89
2023-04-28T13:49:02.768Z,98103.16
2023-04-28T13:51:34.840Z,98108.33
2023-04-28T13:54:08.948Z,98107.09
2023-04-28T13:56:41.549Z,98105.60
2023-04-28T13:59:17.213Z,98097.09
2023-04-28T14:01:49.533Z,98089.88
2023-04-28T14:04:21.929Z,98095.68
2023-04-28T14:06:54.934Z,98090.61
2023-04-28T14:09:27.492Z,98094.77
2023-04-28T14:11:59.541Z,98098.61
2023-04-28T14:14:34.361Z,98097.77
2023-04-28T14:17:06.684Z,98087.51
2023-04-28T14:19:38.793Z,98073.45
2023-04-28T14:22:11.139Z,98073.45
2023-04-28T14:24:44.481Z,98080.71
2023-04-28T14:27:16.905Z,98083.08
2023-04-28T14:29:49.361Z,98084.51
2023-04-28T14:32:23.181Z,98079.20
2023-04-28T14:34:55.771Z,98082.36
2023-04-28T14:37:31.370Z,98088.26
2023-04-28T14:40:05.669Z,98084.81
2023-04-28T14:42:41.053Z,98086.65
2023-04-28T14:45:14.244Z,98091.27
2023-04-28T14:47:47.094Z,98090.93
2023-04-28T14:50:22.392Z,98092.02
2023-04-28T14:52:54.613Z,98079.83
2023-04-28T14:55:27.089Z,98082.99
2023-04-28T14:57:59.558Z,98086.48
2023-04-28T15:00:32.038Z,98091.70
2023-04-28T15:03:04.329Z,98093.51
2023-04-28T15:05:36.550Z,98093.65
2023-04-28T15:08:08.874Z,98084.52
2023-04-28T15:10:42.428Z,98074.90
2023-04-28T15:13:17.184Z,98071.10
2023-04-28T15:15:49.389Z,98067.63
2023-04-28T15:18:21.830Z,98072.20
2023-04-28T15:20:54.152Z,98078.39
2023-04-28T15:23:26.449Z,98074.46
2023-04-28T15:25:58.652Z,98075.18
2023-04-28T15:28:30.744Z,98075.70
2023-04-28T15:31:03.079Z,98069.63
2023-04-28T15:33:35.120Z,98072.77
2023-04-28T15:36:07.472Z,98072.30
2023-04-28T15:38:40.002Z,98066.65
2023-04-28T15:41:12.510Z,98060.06
2023-04-28T15:43:47.152Z,98056.27
2023-04-28T15:46:19.406Z,98053.27
2023-04-28T15:48:51.811Z,98051.79
2023-04-28T15:51:25.400Z,98054.13
2023-04-28T15:53:57.497Z,98049.39
2023-04-28T15:56:31.180Z,98041.61
2023-04-28T15:59:03.622Z,98045.33
2023-04-28T16:01:36.077Z,98048.22
2023-04-28T16:04:09.727Z,98045.89
2023-04-28T16:06:41.917Z,98037.01
2023-04-28T16:09:14.065Z,98032.33
2023-04-28T16:11:47.157Z,98026.80
2023-04-28T16:14:19.162Z,98025.59
2023-04-28T16:16:51.158Z,98026.88
2023-04-28T16:19:25.409Z,98024.94
2023-04-28T16:21:57.592Z,98022.94
2023-04-28T16:24:29.986Z,98023.94
2023-04-28T16:27:02.266Z,98019.32
2023-04-28T16:29:34.862Z,98020.52
2023-04-28T16:32:11.550Z,98022.77
2023-04-28T16:34:43.884Z,98022.86
2023-04-28T16:37:16.211Z,98023.82
2023-04-28T16:39:49.595Z,98022.56
2023-04-28T16:42:22.234Z,98020.30
2023-04-28T16:44:54.298Z,98019.67
2023-04-28T16:47:29.046Z,98020.47
2023-04-28T16:50:01.558Z,98023.70
2023-04-28T16:52:33.591Z,98024.14
2023-04-28T16:55:06.129Z,98023.06
2023-04-28T16:57:38.322Z,98024.30
2023-04-28T17:00:14.133Z,98023.96
2023-04-28T17:02:46.804Z,98029.55
2023-04-28T17:05:19.267Z,98035.20
2023-04-28T17:07:51.965Z,98039.58
2023-04-28T17:10:24.124Z,98042.27
2023-04-28T17:12:56.252Z,98045.30
2023-04-28T17:15:28.492Z,98054.09
2023-04-28T17:18:01.816Z,98054.98
2023-04-28T17:20:34.064Z,98055.91
2023-04-28T17:23:06.108Z,98054.66
2023-04-28T17:25:39.910Z,98057.79
2023-04-28T17:28:12.376Z,98059.40
2023-04-28T17:30:47.448Z,98065.33
2023-04-28T17:33:20.738Z,98064.90
2023-04-28T17:35:52.765Z,98069.59
2023-04-28T17:38:24.833Z,98073.80
2023-04-28T17:40:57.372Z,98075.31
2023-04-28T17:43:30.414Z,98078.42
2023-04-28T17:46:02.603Z,98086.86
2023-04-28T17:48:34.702Z,98092.05
2023-04-28T17:51:06.854Z,98095.98
2023-04-28T17:53:42.431Z,98103.35
2023-04-28T17:56:14.530Z,98104.89
2023-04-28T17:58:48.994Z,98108.95
2023-04-28T18:01:21.284Z,98110.46
2023-04-28T18:03:55.940Z,98115.71
2023-04-28T18:06:28.621Z,98121.67
2023-04-28T18:09:00.684Z,98125.21
2023-04-28T18:11:36.009Z,98120.41
2023-04-28T18:14:09.087Z,98118.27
2023-04-28T18:16:41.422Z,98119.28
2023-04-28T18:19:13.929Z,98119.56
2023-04-28T18:21:45.999Z,98122.91
2023-04-28T18:24:19.178Z,98129.05
2023-04-28T18:26:52.894Z,98131.58
2023-04-28T18:29:25.283Z,98137.61
2023-04-28T18:31:59.576Z,98138.69
2023-04-28T18:34:31.737Z,98141.57
2023-04-28T18:37:03.832Z,98144.56
2023-04-28T18:39:37.559Z,98146.14
2023-04-28T18:42:10.569Z,98152.11
2023-04-28T18:44:42.944Z,98152.96
2023-04-28T18:47:16.076Z,98163.09
2023-04-28T18:49:48.634Z,98168.38
2023-04-28T18:52:21.342Z,98175.44
2023-04-28T18:54:53.416Z,98190.01
2023-04-28T18:57:25.494Z,98206.88
2023-04-28T19:00:00.776Z,98213.20
2023-04-28T19:02:33.194Z,98207.59
2023-04-28T19:05:12.311Z,98202.29
2023-04-28T19:07:44.450Z,98205.69
2023-04-28T19:10:16.954Z,98205.20
2023-04-28T19:12:48.997Z,98206.90
2023-04-28T19:15:21.222Z,98207.65
2023-04-28T19:21:04.276Z,98214.10
2023-04-28T19:23:36.492Z,98218.50
2023-04-28T19:26:09.183Z,98222.22
2023-04-28T19:28:41.569Z,98225.50
2023-04-28T19:31:14.276Z,98227.18
2023-04-28T19:33:46.356Z,98222.98
2023-04-28T19:36:18.717Z,98222.80
2023-04-28T19:38:50.888Z,98225.77
2023-04-28T19:41:23.145Z,98228.92
2023-04-28T19:43:55.495Z,98231.99
2023-04-28T19:46:27.836Z,98230.55
2023-04-28T19:49:00.133Z,98228.48
2023-04-28T19:51:34.954Z,98228.36
2023-04-28T19:54:07.657Z,98228.95
2023-04-28T19:56:39.782Z,98230.30
2023-04-28T19:59:11.922Z,98231.41
2023-04-28T20:01:44.897Z,98235.20
2023-04-28T20:04:17.624Z,98234.86
2023-04-28T20:06:50.404Z,98235.84
2023-04-28T20:09:22.584Z,98234.54
2023-04-28T20:11:54.938Z,98237.02
2023-04-28T20:14:27.832Z,98240.92
2023-04-28T20:17:00.565Z,98241.94
2023-04-28T20:19:35.003Z,98243.48
2023-04-28T20:22:08.809Z,98245.15
2023-04-28T20:24:41.112Z,98245.38
2023-04-28T20:27:13.215Z,98247.21
2023-04-28T20:29:46.736Z,98241.42
2023-04-28T20:32:18.987Z,98242.44
2023-04-28T20:34:51.169Z,98243.92
2023-04-28T20:37:23.559Z,98247.99
2023-04-28T20:39:56.360Z,98245.94
2023-04-28T20:42:29.160Z,98248.80
2023-04-28T20:45:01.316Z,98248.43
2023-04-28T20:47:33.766Z,98246.56
2023-04-28T20:50:06.661Z,98249.42
2023-04-28T20:52:39.407Z,98244.59
2023-04-28T20:55:13.206Z,98245.05
2023-04-28T20:57:46.849Z,98239.91
2023-04-28T21:00:19.176Z,98236.98
2023-04-28T21:02:51.820Z,98235.19
2023-04-28T21:05:24.266Z,98236.33
2023-04-28T21:07:56.428Z,98237.50
2023-04-28T21:10:28.777Z,98242.95
2023-04-28T21:13:01.018Z,98240.92
2023-04-28T21:15:37.399Z,98241.08
2023-04-28T21:18:09.892Z,98243.11
2023-04-28T21:20:42.761Z,98247.23
2023-04-28T21:23:15.283Z,98248.06
2023-04-28T21:25:50.953Z,98249.15
2023-04-28T21:28:23.136Z,98249.90
2023-04-28T21:30:55.958Z,98253.33
2023-04-28T21:33:28.622Z,98253.13
2023-04-28T21:36:05.151Z,98252.94
2023-04-28T21:38:39.160Z,98256.91
2023-04-28T21:41:12.699Z,98255.30
2023-04-28T21:43:44.861Z,98252.16
2023-04-28T21:46:19.859Z,98252.71
2023-04-28T21:48:52.118Z,98253.77
2023-04-28T21:51:24.390Z,98250.80
2023-04-28T21:53:56.826Z,98253.31
2023-04-28T21:56:30.624Z,98255.45
2023-04-28T21:59:03.270Z,98252.54
2023-04-28T22:01:35.702Z,98253.57
2023-04-28T22:04:08.954Z,98252.96
2023-04-28T22:06:41.430Z,98254.02
2023-04-28T22:09:14.009Z,98255.84
2023-04-28T22:11:51.110Z,98255.55
2023-04-28T22:14:39.458Z,98258.10
2023-04-28T22:17:15.381Z,98255.40
2023-04-28T22:19:47.573Z,98261.05
2023-04-28T22:22:22.111Z,98258.86
2023-04-28T22:24:54.184Z,98258.73
2023-04-28T22:27:26.349Z,98258.46
2023-04-28T22:29:58.976Z,98257.04
2023-04-28T22:32:31.735Z,98252.41
2023-04-28T22:35:04.803Z,98248.52
2023-04-28T22:37:39.988Z,98247.43
2023-04-28T22:40:13.240Z,98244.93
2023-04-28T22:42:45.586Z,98246.76
2023-04-28T22:45:20.993Z,98246.52
2023-04-28T22:47:53.518Z,98246.20
2023-04-28T22:53:33.004Z,98245.39
2023-04-28T22:56:05.174Z,98244.89
2023-04-28T22:58:37.365Z,98241.39
2023-04-28T23:01:10.140Z,98237.42
2023-04-28T23:03:42.471Z,98245.73
2023-04-28T23:06:14.791Z,98245.20
2023-04-28T23:08:46.936Z,98246.00
2023-04-28T23:11:19.032Z,98242.41
2023-04-28T23:13:53.745Z,98241.32
2023-04-28T23:16:25.914Z,98241.39
2023-04-28T23:18:58.073Z,98234.23
2023-04-28T23:21:30.187Z,98231.91
2023-04-28T23:24:02.344Z,98232.90
2023-04-28T23:26:34.536Z,98227.48
2023-04-28T23:29:06.691Z,98227.86
2023-04-28T23:31:40.004Z,98227.23
2023-04-28T23:34:12.423Z,98221.34
2023-04-28T23:36:45.238Z,98219.27
2023-04-28T23:39:17.725Z,98218.02
2023-04-28T23:41:49.845Z,98216.89
2023-04-28T23:44:22.010Z,98212.52
2023-04-28T23:46:56.085Z,98210.02
2023-04-28T23:49:34.202Z,98210.55
2023-04-28T23:52:07.732Z,98209.61
2023-04-28T23:54:39.983Z,98212.63
2023-04-28T23:57:12.163Z,98210.53
2023-04-28T23:59:44.365Z,98210.02
